PWSweather.com
Personal Weather Stations
Station Observations
KWAVA98665
Vancouver, WA 98665

Vancouver, WA 98665

Lat: 45.6827589, Lon: -122.63116100000002

Elevation: 262

Station Type: Davis VP2

http://www.bobsvp2wd.net

Latest ConditionsUpdated 1:15:01 PM PDT Monday, Sep 24, 2018
Currently Today's Max Today's Min Today's Average
Temperature 65.1°F18.4°C 65.1°F18.4°C 43.2°F6.2°C 51.0°F10.6°C
Dew Point 48.5°F9.2°C 49.6°F9.8°C 41.6°F5.3°C 46.2°F7.9°C
Winds 4.6 mph NW7.4 kmh NW 4.6 mph -7.4 kmh - - 0.8 mph 1.3 kmh
Wind Gusts 5.8 mph9.3 kmh 8.1 mph13.0 kmh - -
Humidity 55% 96% 55% 85%
Pressure 30.20 in1022.7 mb 30.23 in1023.7 mb 30.16 in1021.3 mb -
Hour Temp Dew Point Humidity Winds Wind Gusts Pressure Precip Precip Rate Daily Precip Total
01:15 PM 65.1°F18.4°C 48.5°F9.2°C 55% 4.6 mph NW7.4 kmh NW 5.8 mph9.3 kmh 30.20 in1022.7 mb - 0.00 in0.0 mm 0.00 in0.0 mm
01:00 PM 63.7°F17.6°C 48.2°F9.0°C 57% 2.3 mph NE3.7 kmh NE 2.3 mph3.7 kmh 30.20 in1022.7 mb - 0.00 in0.0 mm 0.00 in0.0 mm
12:45 PM 62.4°F16.9°C 49.6°F9.8°C 63% 3.5 mph NW5.6 kmh NW 8.1 mph13.0 kmh 30.21 in1023.0 mb - 0.00 in0.0 mm 0.00 in0.0 mm
12:30 PM 61.8°F16.6°C 48.7°F9.3°C 62% 4.6 mph NW7.4 kmh NW 6.9 mph11.1 kmh 30.21 in1023.0 mb - 0.00 in0.0 mm 0.00 in0.0 mm
12:15 PM 62.1°F16.7°C 48.5°F9.2°C 61% 3.5 mph N5.6 kmh N 3.5 mph5.6 kmh 30.22 in1023.4 mb - 0.00 in0.0 mm 0.00 in0.0 mm
12:00 PM 60.7°F15.9°C 48.4°F9.1°C 64% 2.3 mph W3.7 kmh W 3.5 mph5.6 kmh 30.22 in1023.4 mb - 0.00 in0.0 mm 0.00 in0.0 mm
11:45 AM 60.1°F15.6°C 47.9°F8.8°C 64% 1.2 mph NW1.9 kmh NW 2.3 mph3.7 kmh 30.22 in1023.4 mb - 0.00 in0.0 mm 0.00 in0.0 mm
11:30 AM 59.1°F15.1°C 47.7°F8.7°C 66% 2.3 mph N3.7 kmh N 3.5 mph5.6 kmh 30.22 in1023.4 mb - 0.00 in0.0 mm 0.00 in0.0 mm
11:15 AM 58.7°F14.8°C 48.6°F9.2°C 69% 2.3 mph ESE3.7 kmh ESE 3.5 mph5.6 kmh 30.22 in1023.4 mb - 0.00 in0.0 mm 0.00 in0.0 mm
11:00 AM 57.4°F14.1°C 48.0°F8.9°C 71% 2.3 mph N3.7 kmh N 3.5 mph5.6 kmh 30.22 in1023.4 mb - 0.00 in0.0 mm 0.00 in0.0 mm
10:45 AM 56.5°F13.6°C 48.0°F8.9°C 73% 1.2 mph SE1.9 kmh SE 2.3 mph3.7 kmh 30.23 in1023.7 mb - 0.00 in0.0 mm 0.00 in0.0 mm
10:30 AM 56.6°F13.7°C 48.8°F9.3°C 75% Calm Calm 3.5 mph5.6 kmh 30.23 in1023.7 mb - 0.00 in0.0 mm 0.00 in0.0 mm
10:15 AM 54.8°F12.7°C 48.1°F8.9°C 78% 2.3 mph W3.7 kmh W 3.5 mph5.6 kmh 30.22 in1023.4 mb - 0.00 in0.0 mm 0.00 in0.0 mm
10:00 AM 54.2°F12.3°C 48.5°F9.2°C 81% 2.3 mph NNE3.7 kmh NNE 3.5 mph5.6 kmh 30.23 in1023.7 mb - 0.00 in0.0 mm 0.00 in0.0 mm
09:45 AM 52.9°F11.6°C 47.8°F8.8°C 83% 2.3 mph NW3.7 kmh NW 2.3 mph3.7 kmh 30.23 in1023.7 mb - 0.00 in0.0 mm 0.00 in0.0 mm
09:30 AM 51.5°F10.8°C 47.8°F8.8°C 87% Calm Calm 2.3 mph3.7 kmh 30.23 in1023.7 mb - 0.00 in0.0 mm 0.00 in0.0 mm
09:15 AM 50.2°F10.1°C 47.9°F8.8°C 92% Calm Calm -- 30.22 in1023.4 mb - 0.00 in0.0 mm 0.00 in0.0 mm
09:00 AM 48.2°F9.0°C 46.6°F8.1°C 94% Calm Calm -- 30.22 in1023.4 mb - 0.00 in0.0 mm 0.00 in0.0 mm
08:45 AM 47.4°F8.6°C 46.0°F7.8°C 95% Calm Calm -- 30.23 in1023.7 mb - 0.00 in0.0 mm 0.00 in0.0 mm
08:30 AM 46.5°F8.1°C 45.4°F7.4°C 96% Calm Calm -- 30.22 in1023.4 mb - 0.00 in0.0 mm 0.00 in0.0 mm
08:15 AM 45.1°F7.3°C 43.8°F6.6°C 95% Calm Calm -- 30.21 in1023.0 mb - 0.00 in0.0 mm 0.00 in0.0 mm
08:00 AM 44.6°F7.0°C 43.3°F6.3°C 95% Calm Calm -- 30.21 in1023.0 mb - 0.00 in0.0 mm 0.00 in0.0 mm
07:45 AM 43.9°F6.6°C 42.5°F5.8°C 95% Calm Calm -- 30.21 in1023.0 mb - 0.00 in0.0 mm 0.00 in0.0 mm
07:30 AM 43.5°F6.4°C 42.2°F5.7°C 95% Calm Calm -- 30.21 in1023.0 mb - 0.00 in0.0 mm 0.00 in0.0 mm
07:15 AM 43.2°F6.2°C 41.9°F5.5°C 95% Calm Calm -- 30.20 in1022.7 mb - 0.00 in0.0 mm 0.00 in0.0 mm
07:00 AM 43.2°F6.2°C 41.6°F5.3°C 94% Calm Calm -- 30.20 in1022.7 mb - 0.00 in0.0 mm 0.00 in0.0 mm
06:45 AM 43.4°F6.3°C 41.8°F5.4°C 94% Calm Calm -- 30.20 in1022.7 mb - 0.00 in0.0 mm 0.00 in0.0 mm
06:30 AM 43.7°F6.5°C 42.1°F5.6°C 94% Calm Calm -- 30.19 in1022.4 mb - 0.00 in0.0 mm 0.00 in0.0 mm
06:15 AM 43.9°F6.6°C 42.3°F5.7°C 94% Calm Calm -- 30.19 in1022.4 mb - 0.00 in0.0 mm 0.00 in0.0 mm
06:00 AM 44.3°F6.8°C 42.4°F5.8°C 93% Calm Calm -- 30.18 in1022.0 mb - 0.00 in0.0 mm 0.00 in0.0 mm
05:45 AM 44.7°F7.1°C 42.8°F6.0°C 93% Calm Calm -- 30.18 in1022.0 mb - 0.00 in0.0 mm 0.00 in0.0 mm
05:30 AM 45.1°F7.3°C 43.2°F6.2°C 93% Calm Calm -- 30.18 in1022.0 mb - 0.00 in0.0 mm 0.00 in0.0 mm
05:15 AM 45.6°F7.6°C 43.4°F6.3°C 92% Calm Calm -- 30.18 in1022.0 mb - 0.00 in0.0 mm 0.00 in0.0 mm
05:00 AM 46.3°F7.9°C 44.1°F6.7°C 92% Calm Calm -- 30.18 in1022.0 mb - 0.00 in0.0 mm 0.00 in0.0 mm
04:45 AM 47.0°F8.3°C 44.8°F7.1°C 92% Calm Calm -- 30.18 in1022.0 mb - 0.00 in0.0 mm 0.00 in0.0 mm
04:30 AM 48.2°F9.0°C 46.0°F7.8°C 92% Calm Calm -- 30.18 in1022.0 mb - 0.00 in0.0 mm 0.00 in0.0 mm
04:15 AM 48.5°F9.2°C 46.3°F7.9°C 92% Calm Calm -- 30.18 in1022.0 mb - 0.00 in0.0 mm 0.00 in0.0 mm
04:00 AM 48.6°F9.2°C 46.7°F8.2°C 93% Calm Calm -- 30.18 in1022.0 mb - 0.00 in0.0 mm 0.00 in0.0 mm
03:45 AM 48.7°F9.3°C 46.5°F8.1°C 92% Calm Calm -- 30.17 in1021.7 mb - 0.00 in0.0 mm 0.00 in0.0 mm
03:30 AM 48.8°F9.3°C 46.6°F8.1°C 92% Calm Calm -- 30.17 in1021.7 mb - 0.00 in0.0 mm 0.00 in0.0 mm
03:15 AM 49.3°F9.6°C 46.8°F8.2°C 91% Calm Calm -- 30.17 in1021.7 mb - 0.00 in0.0 mm 0.00 in0.0 mm
03:00 AM 49.6°F9.8°C 47.1°F8.4°C 91% Calm Calm -- 30.17 in1021.7 mb - 0.00 in0.0 mm 0.00 in0.0 mm
02:45 AM 49.9°F9.9°C 47.4°F8.6°C 91% Calm Calm 2.3 mph3.7 kmh 30.16 in1021.3 mb - 0.00 in0.0 mm 0.00 in0.0 mm
02:30 AM 50.0°F10.0°C 47.2°F8.4°C 90% 1.2 mph WNW1.9 kmh WNW 2.3 mph3.7 kmh 30.16 in1021.3 mb - 0.00 in0.0 mm 0.00 in0.0 mm
02:15 AM 50.4°F10.2°C 47.3°F8.5°C 89% Calm Calm -- 30.17 in1021.7 mb - 0.00 in0.0 mm 0.00 in0.0 mm
02:00 AM 50.6°F10.3°C 47.5°F8.6°C 89% 1.2 mph WNW1.9 kmh WNW 3.5 mph5.6 kmh 30.17 in1021.7 mb - 0.00 in0.0 mm 0.00 in0.0 mm
01:45 AM 50.8°F10.4°C 47.4°F8.6°C 88% 1.2 mph W1.9 kmh W 3.5 mph5.6 kmh 30.17 in1021.7 mb - 0.00 in0.0 mm 0.00 in0.0 mm
01:30 AM 50.7°F10.4°C 47.3°F8.5°C 88% 1.2 mph WNW1.9 kmh WNW 2.3 mph3.7 kmh 30.17 in1021.7 mb - 0.00 in0.0 mm 0.00 in0.0 mm
01:15 AM 50.3°F10.2°C 46.9°F8.3°C 88% Calm Calm 1.2 mph1.9 kmh 30.17 in1021.7 mb - 0.00 in0.0 mm 0.00 in0.0 mm
01:00 AM 50.9°F10.5°C 46.9°F8.3°C 86% Calm Calm -- 30.17 in1021.7 mb - 0.00 in0.0 mm 0.00 in0.0 mm
12:45 AM 51.5°F10.8°C 47.1°F8.4°C 85% Calm Calm -- 30.17 in1021.7 mb - 0.00 in0.0 mm 0.00 in0.0 mm
12:30 AM 52.2°F11.2°C 47.5°F8.6°C 84% Calm Calm -- 30.17 in1021.7 mb - 0.00 in0.0 mm 0.00 in0.0 mm
12:15 AM 52.7°F11.5°C 47.7°F8.7°C 83% 1.2 mph NW1.9 kmh NW 2.3 mph3.7 kmh 30.16 in1021.3 mb - 0.00 in0.0 mm 0.00 in0.0 mm
12:00 AM 53.1°F11.7°C 47.7°F8.7°C 82% 2.3 mph WNW3.7 kmh WNW 2.3 mph3.7 kmh 30.16 in1021.3 mb - 0.00 in0.0 mm 0.00 in0.0 mm